sensor_id;sensor_type;location;lat;lon;timestamp;pressure;altitude;pressure_sealevel;temperature;humidity
14273;BME280;7220;49.450;11.052;2023-07-29T00:03:27;97749.03;;;17.86;100.00
14273;BME280;7220;49.450;11.052;2023-07-29T00:07:27;97741.66;;;17.88;100.00
14273;BME280;7220;49.450;11.052;2023-07-29T00:11:27;97735.19;;;17.90;100.00
14273;BME280;7220;49.450;11.052;2023-07-29T00:15:28;97727.31;;;17.99;100.00
14273;BME280;7220;49.450;11.052;2023-07-29T00:19:28;97724.13;;;17.84;100.00
14273;BME280;7220;49.450;11.052;2023-07-29T00:23:29;97718.19;;;17.80;100.00
14273;BME280;7220;49.450;11.052;2023-07-29T00:27:29;97715.66;;;17.78;100.00
14273;BME280;7220;49.450;11.052;2023-07-29T00:31:29;97709.56;;;17.76;100.00
14273;BME280;7220;49.450;11.052;2023-07-29T00:35:29;97715.66;;;17.78;100.00
14273;BME280;7220;49.450;11.052;2023-07-29T00:39:30;97717.75;;;17.75;100.00
14273;BME280;7220;49.450;11.052;2023-07-29T00:43:30;97716.19;;;17.72;100.00
14273;BME280;7220;49.450;11.052;2023-07-29T00:47:30;97712.09;;;17.68;100.00
14273;BME280;7220;49.450;11.052;2023-07-29T00:51:31;97716.75;;;17.66;100.00
14273;BME280;7220;49.450;11.052;2023-07-29T00:55:31;97716.44;;;17.59;100.00
14273;BME280;7220;49.450;11.052;2023-07-29T00:59:32;97713.19;;;17.56;100.00
14273;BME280;7220;49.450;11.052;2023-07-29T01:03:35;97718.41;;;17.47;100.00
14273;BME280;7220;49.450;11.052;2023-07-29T01:08:05;97705.84;;;17.48;100.00
14273;BME280;7220;49.450;11.052;2023-07-29T01:12:51;97712.75;;;17.41;100.00
14273;BME280;7220;49.450;11.052;2023-07-29T01:16:58;97715.84;;;17.36;100.00
14273;BME280;7220;49.450;11.052;2023-07-29T01:21:04;97723.78;;;17.47;100.00
14273;BME280;7220;49.450;11.052;2023-07-29T01:25:06;97711.22;;;17.48;100.00
14273;BME280;7220;49.450;11.052;2023-07-29T01:29:06;97703.16;;;17.38;100.00
14273;BME280;7220;49.450;11.052;2023-07-29T01:33:14;97716.66;;;17.27;100.00
14273;BME280;7220;49.450;11.052;2023-07-29T01:37:19;97715.22;;;17.23;100.00
14273;BME280;7220;49.450;11.052;2023-07-29T01:41:21;97719.44;;;17.15;100.00
14273;BME280;7220;49.450;11.052;2023-07-29T01:45:24;97708.53;;;17.07;100.00
14273;BME280;7220;49.450;11.052;2023-07-29T01:49:25;97718.00;;;17.01;100.00
14273;BME280;7220;49.450;11.052;2023-07-29T01:53:25;97714.59;;;16.99;100.00
14273;BME280;7220;49.450;11.052;2023-07-29T01:57:26;97701.22;;;17.09;100.00
14273;BME280;7220;49.450;11.052;2023-07-29T02:01:26;97693.16;;;17.09;100.00
14273;BME280;7220;49.450;11.052;2023-07-29T02:05:26;97697.69;;;17.09;100.00
14273;BME280;7220;49.450;11.052;2023-07-29T02:09:27;97697.38;;;17.02;100.00
14273;BME280;7220;49.450;11.052;2023-07-29T02:13:27;97692.25;;;16.99;100.00
14273;BME280;7220;49.450;11.052;2023-07-29T02:17:27;97695.09;;;16.97;100.00
14273;BME280;7220;49.450;11.052;2023-07-29T02:21:28;97699.09;;;17.13;100.00
14273;BME280;7220;49.450;11.052;2023-07-29T02:25:28;97692.03;;;17.12;100.00
14273;BME280;7220;49.450;11.052;2023-07-29T02:29:28;97687.78;;;17.09;100.00
14273;BME280;7220;49.450;11.052;2023-07-29T02:33:30;97672.53;;;17.10;100.00
14273;BME280;7220;49.450;11.052;2023-07-29T02:37:30;97664.75;;;17.07;100.00
14273;BME280;7220;49.450;11.052;2023-07-29T02:41:31;97663.19;;;17.04;100.00
14273;BME280;7220;49.450;11.052;2023-07-29T02:45:31;97654.97;;;16.96;100.00
14273;BME280;7220;49.450;11.052;2023-07-29T02:49:31;97654.00;;;16.97;100.00
14273;BME280;7220;49.450;11.052;2023-07-29T02:53:32;97636.03;;;16.97;100.00
14273;BME280;7220;49.450;11.052;2023-07-29T02:57:32;97645.81;;;16.77;100.00
14273;BME280;7220;49.450;11.052;2023-07-29T03:01:32;97642.72;;;16.72;100.00
14273;BME280;7220;49.450;11.052;2023-07-29T03:05:33;97640.44;;;16.67;100.00
14273;BME280;7220;49.450;11.052;2023-07-29T03:09:33;97644.22;;;16.65;100.00
14273;BME280;7220;49.450;11.052;2023-07-29T03:13:34;97649.72;;;16.63;100.00
14273;BME280;7220;49.450;11.052;2023-07-29T03:17:34;97663.28;;;16.62;100.00
14273;BME280;7220;49.450;11.052;2023-07-29T03:21:34;97673.16;;;16.61;100.00
14273;BME280;7220;49.450;11.052;2023-07-29T03:25:35;97670.59;;;16.60;100.00
14273;BME280;7220;49.450;11.052;2023-07-29T03:29:35;97679.41;;;16.71;100.00
14273;BME280;7220;49.450;11.052;2023-07-29T03:33:36;97663.44;;;16.70;100.00
14273;BME280;7220;49.450;11.052;2023-07-29T03:37:36;97672.06;;;16.74;100.00
14273;BME280;7220;49.450;11.052;2023-07-29T03:41:36;97674.03;;;16.71;100.00
14273;BME280;7220;49.450;11.052;2023-07-29T03:45:37;97660.75;;;16.70;100.00
14273;BME280;7220;49.450;11.052;2023-07-29T03:49:38;97665.69;;;16.65;100.00
14273;BME280;7220;49.450;11.052;2023-07-29T03:53:39;97662.03;;;16.66;100.00
14273;BME280;7220;49.450;11.052;2023-07-29T03:57:39;97653.69;;;16.69;100.00
14273;BME280;7220;49.450;11.052;2023-07-29T04:01:39;97649.78;;;16.73;100.00
14273;BME280;7220;49.450;11.052;2023-07-29T04:05:39;97649.22;;;16.79;100.00
14273;BME280;7220;49.450;11.052;2023-07-29T04:09:40;97640.16;;;17.01;100.00
14273;BME280;7220;49.450;11.052;2023-07-29T04:13:40;97624.06;;;17.01;100.00
14273;BME280;7220;49.450;11.052;2023-07-29T04:17:40;97623.34;;;16.99;100.00
14273;BME280;7220;49.450;11.052;2023-07-29T04:21:41;97609.50;;;16.94;100.00
14273;BME280;7220;49.450;11.052;2023-07-29T04:25:41;97625.44;;;16.96;100.00
14273;BME280;7220;49.450;11.052;2023-07-29T04:29:41;97632.94;;;17.02;100.00
14273;BME280;7220;49.450;11.052;2023-07-29T04:33:42;97629.00;;;17.06;100.00
14273;BME280;7220;49.450;11.052;2023-07-29T04:37:42;97631.25;;;17.11;100.00
14273;BME280;7220;49.450;11.052;2023-07-29T04:41:43;97628.72;;;17.09;100.00
14273;BME280;7220;49.450;11.052;2023-07-29T04:45:44;97630.84;;;17.15;100.00
14273;BME280;7220;49.450;11.052;2023-07-29T04:49:44;97615.19;;;17.21;100.00
14273;BME280;7220;49.450;11.052;2023-07-29T04:53:45;97625.41;;;17.46;100.00
14273;BME280;7220;49.450;11.052;2023-07-29T04:57:45;97617.19;;;17.58;100.00
14273;BME280;7220;49.450;11.052;2023-07-29T05:01:45;97603.19;;;17.64;100.00
14273;BME280;7220;49.450;11.052;2023-07-29T05:05:46;97601.63;;;17.71;100.00
14273;BME280;7220;49.450;11.052;2023-07-29T05:09:47;97594.00;;;17.76;100.00
14273;BME280;7220;49.450;11.052;2023-07-29T05:13:47;97588.47;;;17.88;100.00
14273;BME280;7220;49.450;11.052;2023-07-29T05:17:48;97597.56;;;17.96;100.00
14273;BME280;7220;49.450;11.052;2023-07-29T05:21:48;97597.25;;;18.09;100.00
14273;BME280;7220;49.450;11.052;2023-07-29T05:25:48;97608.00;;;18.09;100.00
14273;BME280;7220;49.450;11.052;2023-07-29T05:29:49;97609.97;;;18.07;100.00
14273;BME280;7220;49.450;11.052;2023-07-29T05:33:49;97617.78;;;18.10;100.00
14273;BME280;7220;49.450;11.052;2023-07-29T05:37:49;97613.50;;;18.08;100.00
14273;BME280;7220;49.450;11.052;2023-07-29T05:41:50;97608.69;;;18.11;100.00
14273;BME280;7220;49.450;11.052;2023-07-29T05:45:50;97607.81;;;18.21;100.00
14273;BME280;7220;49.450;11.052;2023-07-29T05:49:51;97612.91;;;18.24;100.00
14273;BME280;7220;49.450;11.052;2023-07-29T05:53:51;97606.56;;;18.25;100.00
14273;BME280;7220;49.450;11.052;2023-07-29T05:57:51;97607.22;;;18.27;100.00
14273;BME280;7220;49.450;11.052;2023-07-29T06:01:52;97604.25;;;18.30;100.00
14273;BME280;7220;49.450;11.052;2023-07-29T06:05:52;97609.25;;;18.25;100.00
14273;BME280;7220;49.450;11.052;2023-07-29T06:09:52;97626.53;;;18.22;100.00
14273;BME280;7220;49.450;11.052;2023-07-29T06:13:54;97623.13;;;18.20;100.00
14273;BME280;7220;49.450;11.052;2023-07-29T06:17:54;97627.34;;;18.23;100.00
14273;BME280;7220;49.450;11.052;2023-07-29T06:21:57;97618.88;;;18.18;100.00
14273;BME280;7220;49.450;11.052;2023-07-29T06:25:57;97624.53;;;18.15;100.00
14273;BME280;7220;49.450;11.052;2023-07-29T06:29:58;97617.47;;;18.13;100.00
14273;BME280;7220;49.450;11.052;2023-07-29T06:33:59;97620.00;;;18.25;100.00
14273;BME280;7220;49.450;11.052;2023-07-29T06:37:59;97612.44;;;18.38;100.00
14273;BME280;7220;49.450;11.052;2023-07-29T06:41:59;97644.44;;;18.41;100.00
14273;BME280;7220;49.450;11.052;2023-07-29T06:46:00;97686.81;;;18.29;100.00
14273;BME280;7220;49.450;11.052;2023-07-29T06:50:00;97648.88;;;17.93;100.00
14273;BME280;7220;49.450;11.052;2023-07-29T06:54:03;97627.25;;;17.65;100.00
14273;BME280;7220;49.450;11.052;2023-07-29T06:58:04;97633.31;;;17.48;100.00
14273;BME280;7220;49.450;11.052;2023-07-29T07:02:05;97646.31;;;17.43;100.00
14273;BME280;7220;49.450;11.052;2023-07-29T07:06:05;97650.69;;;17.44;100.00
14273;BME280;7220;49.450;11.052;2023-07-29T07:10:06;97648.88;;;17.54;100.00
14273;BME280;7220;49.450;11.052;2023-07-29T07:14:06;97638.69;;;17.58;100.00
14273;BME280;7220;49.450;11.052;2023-07-29T07:18:07;97637.44;;;17.72;100.00
14273;BME280;7220;49.450;11.052;2023-07-29T07:22:07;97625.81;;;17.91;100.00
14273;BME280;7220;49.450;11.052;2023-07-29T07:26:07;97613.81;;;18.05;100.00
14273;BME280;7220;49.450;11.052;2023-07-29T07:30:08;97627.50;;;18.11;100.00
14273;BME280;7220;49.450;11.052;2023-07-29T07:34:08;97618.28;;;18.24;100.00
14273;BME280;7220;49.450;11.052;2023-07-29T07:38:08;97625.31;;;18.44;100.00
14273;BME280;7220;49.450;11.052;2023-07-29T07:42:09;97625.56;;;18.51;100.00
14273;BME280;7220;49.450;11.052;2023-07-29T07:46:10;97613.88;;;18.42;100.00
14273;BME280;7220;49.450;11.052;2023-07-29T07:50:10;97627.44;;;18.51;100.00
14273;BME280;7220;49.450;11.052;2023-07-29T07:54:10;97629.09;;;18.52;100.00
14273;BME280;7220;49.450;11.052;2023-07-29T07:58:11;97633.81;;;18.50;100.00
14273;BME280;7220;49.450;11.052;2023-07-29T08:02:11;97625.19;;;18.36;100.00
14273;BME280;7220;49.450;11.052;2023-07-29T08:06:11;97630.75;;;18.25;100.00
14273;BME280;7220;49.450;11.052;2023-07-29T08:10:12;97635.03;;;18.18;100.00
14273;BME280;7220;49.450;11.052;2023-07-29T08:14:12;97626.25;;;18.16;100.00
14273;BME280;7220;49.450;11.052;2023-07-29T08:18:12;97599.09;;;17.99;100.00
14273;BME280;7220;49.450;11.052;2023-07-29T08:22:12;97604.19;;;18.02;100.00
14273;BME280;7220;49.450;11.052;2023-07-29T08:26:13;97615.06;;;18.01;100.00
14273;BME280;7220;49.450;11.052;2023-07-29T08:30:13;97627.69;;;18.00;100.00
14273;BME280;7220;49.450;11.052;2023-07-29T08:34:14;97591.31;;;17.96;100.00
14273;BME280;7220;49.450;11.052;2023-07-29T08:38:15;97602.91;;;18.06;100.00
14273;BME280;7220;49.450;11.052;2023-07-29T08:42:16;97609.84;;;17.99;100.00
14273;BME280;7220;49.450;11.052;2023-07-29T08:46:19;97620.88;;;18.06;100.00
14273;BME280;7220;49.450;11.052;2023-07-29T08:50:21;97611.53;;;18.10;100.00
14273;BME280;7220;49.450;11.052;2023-07-29T08:54:21;97618.03;;;18.07;100.00
14273;BME280;7220;49.450;11.052;2023-07-29T08:58:23;97623.44;;;18.07;100.00
14273;BME280;7220;49.450;11.052;2023-07-29T09:02:23;97618.31;;;17.94;100.00
14273;BME280;7220;49.450;11.052;2023-07-29T09:06:24;97613.78;;;17.95;100.00
14273;BME280;7220;49.450;11.052;2023-07-29T09:10:26;97615.94;;;18.01;100.00
14273;BME280;7220;49.450;11.052;2023-07-29T09:14:26;97625.94;;;18.19;100.00
14273;BME280;7220;49.450;11.052;2023-07-29T09:18:27;97629.34;;;18.21;100.00
14273;BME280;7220;49.450;11.052;2023-07-29T09:22:28;97643.06;;;18.27;100.00
14273;BME280;7220;49.450;11.052;2023-07-29T09:26:28;97666.00;;;18.22;100.00
14273;BME280;7220;49.450;11.052;2023-07-29T09:30:29;97675.59;;;18.24;100.00
14273;BME280;7220;49.450;11.052;2023-07-29T09:34:30;97651.97;;;18.38;100.00
14273;BME280;7220;49.450;11.052;2023-07-29T09:38:30;97644.81;;;18.56;100.00
14273;BME280;7220;49.450;11.052;2023-07-29T09:42:31;97653.53;;;18.78;100.00
14273;BME280;7220;49.450;11.052;2023-07-29T09:46:35;97657.50;;;19.12;100.00
14273;BME280;7220;49.450;11.052;2023-07-29T09:50:36;97655.09;;;19.08;100.00
14273;BME280;7220;49.450;11.052;2023-07-29T09:54:37;97650.53;;;19.19;100.00
14273;BME280;7220;49.450;11.052;2023-07-29T09:58:37;97635.00;;;19.49;100.00
14273;BME280;7220;49.450;11.052;2023-07-29T10:02:43;97634.34;;;19.65;100.00
14273;BME280;7220;49.450;11.052;2023-07-29T10:06:44;97625.16;;;19.76;100.00
14273;BME280;7220;49.450;11.052;2023-07-29T10:10:46;97626.16;;;19.75;100.00
14273;BME280;7220;49.450;11.052;2023-07-29T10:14:47;97632.09;;;19.96;100.00
14273;BME280;7220;49.450;11.052;2023-07-29T10:18:48;97632.47;;;20.20;100.00
14273;BME280;7220;49.450;11.052;2023-07-29T10:22:50;97628.94;;;20.45;100.00
14273;BME280;7220;49.450;11.052;2023-07-29T10:26:51;97640.50;;;20.64;100.00
14273;BME280;7220;49.450;11.052;2023-07-29T10:30:52;97622.72;;;20.79;100.00
14273;BME280;7220;49.450;11.052;2023-07-29T10:34:53;97614.78;;;20.78;100.00
14273;BME280;7220;49.450;11.052;2023-07-29T10:38:54;97612.50;;;20.65;100.00
14273;BME280;7220;49.450;11.052;2023-07-29T10:43:09;97627.41;;;20.51;100.00
14273;BME280;7220;49.450;11.052;2023-07-29T10:55:34;97635.34;;;21.14;100.00
14273;BME280;7220;49.450;11.052;2023-07-29T10:59:36;97633.91;;;21.36;100.00
14273;BME280;7220;49.450;11.052;2023-07-29T11:03:37;97627.78;;;21.25;100.00
14273;BME280;7220;49.450;11.052;2023-07-29T11:07:44;97615.59;;;21.89;100.00
14273;BME280;7220;49.450;11.052;2023-07-29T11:11:45;97626.75;;;22.02;100.00
14273;BME280;7220;49.450;11.052;2023-07-29T11:15:47;97619.13;;;21.73;100.00
14273;BME280;7220;49.450;11.052;2023-07-29T11:19:49;97617.44;;;21.80;100.00
14273;BME280;7220;49.450;11.052;2023-07-29T11:23:53;97616.09;;;21.68;100.00
14273;BME280;7220;49.450;11.052;2023-07-29T11:27:55;97627.53;;;21.53;100.00
14273;BME280;7220;49.450;11.052;2023-07-29T11:31:56;97628.59;;;21.69;100.00
14273;BME280;7220;49.450;11.052;2023-07-29T11:35:56;97627.22;;;21.65;100.00
14273;BME280;7220;49.450;11.052;2023-07-29T11:39:56;97608.66;;;21.70;100.00
14273;BME280;7220;49.450;11.052;2023-07-29T11:43:58;97622.00;;;21.80;100.00
14273;BME280;7220;49.450;11.052;2023-07-29T11:47:58;97627.94;;;22.00;100.00
14273;BME280;7220;49.450;11.052;2023-07-29T11:52:02;97617.59;;;22.45;100.00
14273;BME280;7220;49.450;11.052;2023-07-29T11:56:03;97603.09;;;24.71;97.81
14273;BME280;7220;49.450;11.052;2023-07-29T12:00:08;97607.34;;;23.74;99.31
14273;BME280;7220;49.450;11.052;2023-07-29T12:04:10;97592.22;;;23.57;100.00
14273;BME280;7220;49.450;11.052;2023-07-29T12:08:11;97586.66;;;25.61;88.39
14273;BME280;7220;49.450;11.052;2023-07-29T12:12:11;97575.53;;;25.04;89.13
14273;BME280;7220;49.450;11.052;2023-07-29T12:16:16;97586.03;;;24.78;88.48
14273;BME280;7220;49.450;11.052;2023-07-29T12:20:19;97572.75;;;27.40;75.24
14273;BME280;7220;49.450;11.052;2023-07-29T12:24:22;97572.88;;;28.27;68.82
14273;BME280;7220;49.450;11.052;2023-07-29T12:28:22;97572.88;;;28.07;67.65
14273;BME280;7220;49.450;11.052;2023-07-29T12:32:27;97569.53;;;26.11;75.29
14273;BME280;7220;49.450;11.052;2023-07-29T12:36:49;97563.81;;;28.40;66.28
14273;BME280;7220;49.450;11.052;2023-07-29T12:40:49;97571.81;;;27.75;66.36
14273;BME280;7220;49.450;11.052;2023-07-29T12:44:49;97574.19;;;26.81;68.45
14273;BME280;7220;49.450;11.052;2023-07-29T12:48:50;97569.28;;;27.11;68.52
14273;BME280;7220;49.450;11.052;2023-07-29T12:52:50;97572.03;;;28.33;61.46
14273;BME280;7220;49.450;11.052;2023-07-29T12:56:51;97558.19;;;28.08;62.34
14273;BME280;7220;49.450;11.052;2023-07-29T13:00:51;97557.09;;;29.15;59.90
14273;BME280;7220;49.450;11.052;2023-07-29T13:04:52;97534.22;;;27.70;64.00
14273;BME280;7220;49.450;11.052;2023-07-29T13:08:52;97543.75;;;28.87;59.80
14273;BME280;7220;49.450;11.052;2023-07-29T13:12:53;97531.28;;;27.98;62.36
14273;BME280;7220;49.450;11.052;2023-07-29T13:16:53;97522.47;;;27.83;63.18
14273;BME280;7220;49.450;11.052;2023-07-29T13:20:54;97526.19;;;28.49;60.07
14273;BME280;7220;49.450;11.052;2023-07-29T13:24:55;97530.41;;;27.58;62.27
14273;BME280;7220;49.450;11.052;2023-07-29T13:28:55;97535.44;;;26.50;63.25
14273;BME280;7220;49.450;11.052;2023-07-29T13:32:56;97535.50;;;28.28;58.87
14273;BME280;7220;49.450;11.052;2023-07-29T13:36:56;97531.81;;;28.61;57.47
14273;BME280;7220;49.450;11.052;2023-07-29T13:40:57;97526.81;;;29.55;55.20
14273;BME280;7220;49.450;11.052;2023-07-29T13:44:57;97532.78;;;30.28;53.63
14273;BME280;7220;49.450;11.052;2023-07-29T13:48:57;97526.53;;;29.32;56.07
14273;BME280;7220;49.450;11.052;2023-07-29T13:52:58;97517.28;;;28.80;57.82
14273;BME280;7220;49.450;11.052;2023-07-29T13:56:58;97528.34;;;28.20;58.55
14273;BME280;7220;49.450;11.052;2023-07-29T14:00:58;97535.03;;;27.91;58.96
14273;BME280;7220;49.450;11.052;2023-07-29T14:04:59;97524.06;;;27.37;60.36
14273;BME280;7220;49.450;11.052;2023-07-29T14:08:59;97534.41;;;27.89;58.53
14273;BME280;7220;49.450;11.052;2023-07-29T14:12:59;97538.81;;;28.43;56.48
14273;BME280;7220;49.450;11.052;2023-07-29T14:17:00;97525.81;;;27.92;56.09
14273;BME280;7220;49.450;11.052;2023-07-29T14:21:00;97547.44;;;27.66;55.51
14273;BME280;7220;49.450;11.052;2023-07-29T14:25:00;97535.66;;;26.90;57.18
14273;BME280;7220;49.450;11.052;2023-07-29T14:29:01;97533.50;;;26.79;58.43
14273;BME280;7220;49.450;11.052;2023-07-29T14:33:01;97538.47;;;26.69;59.52
14273;BME280;7220;49.450;11.052;2023-07-29T14:37:01;97534.56;;;26.43;59.86
14273;BME280;7220;49.450;11.052;2023-07-29T14:41:02;97535.59;;;26.77;58.54
14273;BME280;7220;49.450;11.052;2023-07-29T14:45:04;97527.69;;;26.89;58.80
14273;BME280;7220;49.450;11.052;2023-07-29T14:49:04;97525.47;;;27.19;59.00
14273;BME280;7220;49.450;11.052;2023-07-29T14:53:04;97513.13;;;27.23;57.34
14273;BME280;7220;49.450;11.052;2023-07-29T14:57:06;97517.66;;;27.03;57.13
14273;BME280;7220;49.450;11.052;2023-07-29T15:01:06;97501.16;;;26.69;58.17
14273;BME280;7220;49.450;11.052;2023-07-29T15:05:07;97504.38;;;26.80;57.31
14273;BME280;7220;49.450;11.052;2023-07-29T15:09:07;97506.41;;;26.71;55.92
14273;BME280;7220;49.450;11.052;2023-07-29T15:13:08;97499.41;;;26.97;55.59
14273;BME280;7220;49.450;11.052;2023-07-29T15:17:08;97491.88;;;26.99;56.11
14273;BME280;7220;49.450;11.052;2023-07-29T15:21:08;97501.16;;;26.69;56.86
14273;BME280;7220;49.450;11.052;2023-07-29T15:25:09;97494.63;;;26.64;56.17
14273;BME280;7220;49.450;11.052;2023-07-29T15:29:10;97522.91;;;26.63;53.20
14273;BME280;7220;49.450;11.052;2023-07-29T15:33:10;97502.16;;;26.61;52.31
14273;BME280;7220;49.450;11.052;2023-07-29T15:37:11;97511.63;;;26.66;52.95
14273;BME280;7220;49.450;11.052;2023-07-29T15:41:11;97494.75;;;26.49;52.52
14273;BME280;7220;49.450;11.052;2023-07-29T15:45:12;97483.00;;;26.41;53.03
14273;BME280;7220;49.450;11.052;2023-07-29T15:49:12;97479.75;;;26.59;52.73
14273;BME280;7220;49.450;11.052;2023-07-29T15:53:12;97483.94;;;26.69;52.75
14273;BME280;7220;49.450;11.052;2023-07-29T15:57:13;97485.25;;;26.73;51.82
14273;BME280;7220;49.450;11.052;2023-07-29T16:01:13;97496.09;;;26.59;52.26
14273;BME280;7220;49.450;11.052;2023-07-29T16:05:14;97505.47;;;26.50;52.59
14273;BME280;7220;49.450;11.052;2023-07-29T16:09:14;97495.50;;;26.29;53.31
14273;BME280;7220;49.450;11.052;2023-07-29T16:13:14;97509.63;;;26.39;52.91
14273;BME280;7220;49.450;11.052;2023-07-29T16:17:17;97507.50;;;26.41;52.65
14273;BME280;7220;49.450;11.052;2023-07-29T16:21:18;97511.25;;;26.34;53.29
14273;BME280;7220;49.450;11.052;2023-07-29T16:25:18;97516.84;;;26.25;53.50
14273;BME280;7220;49.450;11.052;2023-07-29T16:29:19;97526.56;;;26.35;53.65
14273;BME280;7220;49.450;11.052;2023-07-29T16:33:19;97553.66;;;26.14;54.36
14273;BME280;7220;49.450;11.052;2023-07-29T16:37:19;97547.09;;;26.09;55.31
14273;BME280;7220;49.450;11.052;2023-07-29T16:41:20;97538.41;;;25.98;55.46
14273;BME280;7220;49.450;11.052;2023-07-29T16:45:20;97555.91;;;26.39;54.35
14273;BME280;7220;49.450;11.052;2023-07-29T16:49:20;97547.16;;;25.94;56.59
14273;BME280;7220;49.450;11.052;2023-07-29T16:53:21;97553.25;;;26.81;54.96
14273;BME280;7220;49.450;11.052;2023-07-29T16:57:21;97543.31;;;27.22;53.92
14273;BME280;7220;49.450;11.052;2023-07-29T17:01:21;97542.34;;;26.81;55.25
14273;BME280;7220;49.450;11.052;2023-07-29T17:05:22;97541.13;;;26.90;55.56
14273;BME280;7220;49.450;11.052;2023-07-29T17:09:22;97539.97;;;27.20;53.92
14273;BME280;7220;49.450;11.052;2023-07-29T17:13:22;97554.59;;;28.01;51.60
14273;BME280;7220;49.450;11.052;2023-07-29T17:17:23;97539.25;;;28.13;50.34
14273;BME280;7220;49.450;11.052;2023-07-29T17:21:23;97546.63;;;27.04;52.84
14273;BME280;7220;49.450;11.052;2023-07-29T17:25:23;97553.75;;;26.06;56.58
14273;BME280;7220;49.450;11.052;2023-07-29T17:29:26;97556.94;;;25.60;58.42
14273;BME280;7220;49.450;11.052;2023-07-29T17:33:26;97568.53;;;25.47;59.51
14273;BME280;7220;49.450;11.052;2023-07-29T17:37:26;97556.41;;;25.49;59.32
14273;BME280;7220;49.450;11.052;2023-07-29T17:41:26;97560.56;;;25.67;59.49
14273;BME280;7220;49.450;11.052;2023-07-29T17:45:27;97560.47;;;25.39;60.42
14273;BME280;7220;49.450;11.052;2023-07-29T17:49:28;97563.06;;;25.10;61.62
14273;BME280;7220;49.450;11.052;2023-07-29T17:53:28;97558.31;;;24.82;62.64
14273;BME280;7220;49.450;11.052;2023-07-29T17:57:28;97556.78;;;24.65;63.14
14273;BME280;7220;49.450;11.052;2023-07-29T18:01:29;97553.06;;;24.51;63.26
14273;BME280;7220;49.450;11.052;2023-07-29T18:05:29;97547.25;;;24.39;64.05
14273;BME280;7220;49.450;11.052;2023-07-29T18:09:29;97552.00;;;24.22;64.85
14273;BME280;7220;49.450;11.052;2023-07-29T18:13:30;97567.06;;;24.09;65.38
14273;BME280;7220;49.450;11.052;2023-07-29T18:17:31;97571.63;;;23.94;65.99
14273;BME280;7220;49.450;11.052;2023-07-29T18:21:31;97573.91;;;23.82;66.12
14273;BME280;7220;49.450;11.052;2023-07-29T18:25:32;97571.81;;;23.69;66.50
14273;BME280;7220;49.450;11.052;2023-07-29T18:29:32;97578.66;;;23.57;67.13
14273;BME280;7220;49.450;11.052;2023-07-29T18:33:33;97579.72;;;23.47;68.29
14273;BME280;7220;49.450;11.052;2023-07-29T18:37:33;97571.34;;;23.34;68.74
14273;BME280;7220;49.450;11.052;2023-07-29T18:41:33;97580.56;;;23.25;69.37
14273;BME280;7220;49.450;11.052;2023-07-29T18:45:34;97573.16;;;23.10;69.41
14273;BME280;7220;49.450;11.052;2023-07-29T18:49:34;97587.09;;;23.07;70.03
14273;BME280;7220;49.450;11.052;2023-07-29T18:53:34;97598.69;;;22.84;71.24
14273;BME280;7220;49.450;11.052;2023-07-29T18:57:35;97598.72;;;22.76;71.62
14273;BME280;7220;49.450;11.052;2023-07-29T19:01:35;97602.31;;;22.68;72.35
14273;BME280;7220;49.450;11.052;2023-07-29T19:05:35;97598.75;;;22.60;72.68
14273;BME280;7220;49.450;11.052;2023-07-29T19:09:36;97601.84;;;22.57;73.35
14273;BME280;7220;49.450;11.052;2023-07-29T19:13:36;97596.94;;;22.52;73.35
14273;BME280;7220;49.450;11.052;2023-07-29T19:17:36;97593.41;;;22.43;73.65
14273;BME280;7220;49.450;11.052;2023-07-29T19:21:36;97596.59;;;22.38;74.43
14273;BME280;7220;49.450;11.052;2023-07-29T19:25:44;97601.53;;;22.43;74.35
14273;BME280;7220;49.450;11.052;2023-07-29T19:29:44;97606.28;;;22.41;74.62
14273;BME280;7220;49.450;11.052;2023-07-29T19:33:45;97608.97;;;22.25;75.12
14273;BME280;7220;49.450;11.052;2023-07-29T19:37:46;97608.97;;;22.16;75.67
14273;BME280;7220;49.450;11.052;2023-07-29T19:41:46;97603.25;;;22.11;75.41
14273;BME280;7220;49.450;11.052;2023-07-29T19:45:47;97630.81;;;22.06;75.97
14273;BME280;7220;49.450;11.052;2023-07-29T19:49:48;97633.00;;;22.03;76.39
14273;BME280;7220;49.450;11.052;2023-07-29T19:53:48;97629.94;;;21.98;76.24
14273;BME280;7220;49.450;11.052;2023-07-29T19:57:48;97628.09;;;21.98;76.34
14273;BME280;7220;49.450;11.052;2023-07-29T20:01:49;97629.94;;;21.89;76.38
14273;BME280;7220;49.450;11.052;2023-07-29T20:05:49;97635.88;;;21.93;76.36
